createdAt,value
2019-02-09T00:00:52.406Z,99.90
2019-02-09T00:03:18.650Z,99.90
2019-02-09T00:05:44.706Z,99.90
2019-02-09T00:08:10.923Z,99.90
2019-02-09T00:10:36.925Z,99.90
2019-02-09T00:13:03.455Z,99.90
2019-02-09T00:15:29.666Z,98.90
2019-02-09T00:17:55.681Z,98.40
2019-02-09T00:20:21.940Z,97.80
2019-02-09T00:22:48.050Z,97.30
2019-02-09T00:25:17.102Z,97.20
2019-02-09T00:27:43.138Z,97.60
2019-02-09T00:30:13.971Z,97.30
2019-02-09T00:32:39.979Z,97.40
2019-02-09T00:35:09.085Z,98.00
2019-02-09T00:37:35.355Z,98.70
2019-02-09T00:40:01.581Z,99.00
2019-02-09T00:42:27.596Z,99.80
2019-02-09T00:44:53.607Z,99.90
2019-02-09T00:47:19.858Z,99.10
2019-02-09T00:49:45.866Z,99.50
2019-02-09T00:52:11.890Z,99.90
2019-02-09T00:54:37.923Z,99.90
2019-02-09T00:57:04.042Z,99.60
2019-02-09T00:59:30.282Z,99.10
2019-02-09T01:01:56.308Z,99.20
2019-02-09T01:04:22.320Z,98.50
2019-02-09T01:06:48.338Z,98.20
2019-02-09T01:09:14.604Z,98.00
2019-02-09T01:11:40.629Z,97.60
2019-02-09T01:14:06.842Z,97.10
2019-02-09T01:16:32.855Z,97.50
2019-02-09T01:18:58.923Z,97.70
2019-02-09T01:21:24.924Z,98.40
2019-02-09T01:23:50.955Z,99.90
2019-02-09T01:26:17.191Z,99.90
2019-02-09T01:28:43.212Z,99.90
2019-02-09T01:31:09.220Z,99.90
2019-02-09T01:33:35.473Z,99.90
2019-02-09T01:36:01.481Z,99.90
2019-02-09T01:38:27.522Z,99.90
2019-02-09T01:40:53.758Z,99.90
2019-02-09T01:43:19.761Z,99.90
2019-02-09T01:45:45.778Z,99.90
2019-02-09T01:48:11.773Z,99.90
2019-02-09T01:50:37.785Z,99.90
2019-02-09T01:53:04.030Z,99.90
2019-02-09T01:55:30.046Z,99.90
2019-02-09T01:57:57.146Z,99.90
2019-02-09T02:00:25.767Z,99.90
2019-02-09T02:02:51.886Z,99.90
2019-02-09T02:05:19.806Z,99.90
2019-02-09T02:07:45.810Z,99.90
2019-02-09T02:10:15.623Z,99.90
2019-02-09T02:12:41.644Z,99.90
2019-02-09T02:15:11.687Z,99.90
2019-02-09T02:17:37.698Z,99.90
2019-02-09T02:20:10.639Z,99.90
2019-02-09T02:22:36.666Z,99.90
2019-02-09T02:25:04.978Z,99.90
2019-02-09T02:27:30.999Z,99.90
2019-02-09T02:29:57.015Z,99.90
2019-02-09T02:32:23.043Z,99.90
2019-02-09T02:34:49.283Z,99.90
2019-02-09T02:37:15.311Z,99.90
2019-02-09T02:39:41.331Z,99.90
2019-02-09T02:42:07.342Z,99.90
2019-02-09T02:44:33.373Z,99.90
2019-02-09T02:46:59.381Z,99.90
2019-02-09T02:49:25.651Z,99.90
2019-02-09T02:51:51.655Z,99.90
2019-02-09T02:54:17.673Z,99.90
2019-02-09T02:56:43.675Z,99.90
2019-02-09T02:59:09.688Z,99.90
2019-02-09T03:01:35.698Z,99.90
2019-02-09T03:04:01.943Z,99.90
2019-02-09T03:06:27.976Z,99.90
2019-02-09T03:08:54.211Z,99.90
2019-02-09T03:11:20.236Z,99.90
2019-02-09T03:13:46.247Z,99.90
2019-02-09T03:16:12.258Z,99.90
2019-02-09T03:18:38.270Z,99.90
2019-02-09T03:21:04.287Z,99.90
2019-02-09T03:23:30.309Z,99.90
2019-02-09T03:25:56.348Z,99.90
2019-02-09T03:28:22.350Z,99.90
2019-02-09T03:30:49.213Z,99.90
2019-02-09T03:33:15.472Z,99.90
2019-02-09T03:35:41.470Z,99.90
2019-02-09T03:38:07.494Z,99.90
2019-02-09T03:40:33.528Z,99.90
2019-02-09T03:42:59.548Z,99.90
2019-02-09T03:45:32.846Z,99.90
2019-02-09T03:47:59.467Z,99.90
2019-02-09T03:50:27.270Z,99.90
2019-02-09T03:52:53.381Z,99.90
2019-02-09T03:55:19.384Z,99.90
2019-02-09T03:57:45.582Z,99.90
2019-02-09T04:00:14.737Z,99.90
2019-02-09T04:02:40.938Z,99.90
2019-02-09T04:05:09.546Z,99.90
2019-02-09T04:07:35.592Z,99.90
2019-02-09T04:10:07.614Z,99.90
2019-02-09T04:12:33.637Z,99.90
2019-02-09T04:14:59.653Z,99.90
2019-02-09T04:17:25.698Z,99.90
2019-02-09T04:19:51.701Z,99.90
2019-02-09T04:22:17.702Z,99.90
2019-02-09T04:24:43.742Z,99.90
2019-02-09T04:27:09.969Z,99.90
2019-02-09T04:29:36.231Z,99.90
2019-02-09T04:32:02.249Z,99.90
2019-02-09T04:34:28.245Z,99.90
2019-02-09T04:36:54.522Z,99.90
2019-02-09T04:39:21.869Z,99.90
2019-02-09T04:41:48.074Z,99.90
2019-02-09T04:44:14.072Z,99.90
2019-02-09T04:46:40.117Z,99.90
2019-02-09T04:49:06.119Z,99.90
2019-02-09T04:51:32.370Z,99.90
2019-02-09T04:53:58.816Z,99.90
2019-02-09T04:56:25.066Z,99.90
2019-02-09T04:58:51.089Z,99.90
2019-02-09T05:01:17.094Z,99.90
2019-02-09T05:03:43.094Z,99.90
2019-02-09T05:06:09.349Z,99.90
2019-02-09T05:08:35.353Z,99.90
2019-02-09T05:11:01.362Z,99.90
2019-02-09T05:13:27.390Z,99.90
2019-02-09T05:15:53.618Z,99.90
2019-02-09T05:18:19.627Z,99.90
2019-02-09T05:20:45.925Z,99.90
2019-02-09T05:23:11.942Z,99.90
2019-02-09T05:25:38.148Z,99.90
2019-02-09T05:28:04.168Z,99.90
2019-02-09T05:30:30.175Z,99.90
2019-02-09T05:32:56.192Z,99.90
2019-02-09T05:35:22.422Z,99.90
2019-02-09T05:37:48.443Z,99.90
2019-02-09T05:40:23.395Z,99.90
2019-02-09T05:42:49.620Z,99.90
2019-02-09T05:45:17.641Z,99.90
2019-02-09T05:47:43.768Z,99.90
2019-02-09T05:50:12.700Z,99.90
2019-02-09T05:52:38.946Z,99.90
2019-02-09T05:55:06.862Z,99.90
2019-02-09T05:57:32.865Z,99.90
2019-02-09T05:59:58.905Z,99.90
2019-02-09T06:02:25.123Z,99.90
2019-02-09T06:04:51.226Z,99.90
2019-02-09T06:07:17.222Z,99.90
2019-02-09T06:09:43.227Z,99.90
2019-02-09T06:12:09.249Z,99.90
2019-02-09T06:14:35.269Z,99.90
2019-02-09T06:17:01.310Z,99.90
2019-02-09T06:19:27.328Z,99.90
2019-02-09T06:21:53.338Z,99.90
2019-02-09T06:24:19.592Z,99.90
2019-02-09T06:26:45.611Z,99.90
2019-02-09T06:29:11.859Z,99.90
2019-02-09T06:31:40.903Z,99.90
2019-02-09T06:34:05.790Z,99.90
2019-02-09T06:36:32.030Z,99.90
2019-02-09T06:38:58.282Z,99.90
2019-02-09T06:41:24.341Z,99.90
2019-02-09T06:43:50.622Z,99.90
2019-02-09T06:46:16.626Z,99.90
2019-02-09T06:48:42.627Z,99.90
2019-02-09T06:51:08.642Z,99.90
2019-02-09T06:53:34.890Z,99.90
2019-02-09T06:56:00.941Z,99.90
2019-02-09T06:58:26.938Z,99.90
2019-02-09T07:00:53.218Z,99.90
2019-02-09T07:03:19.234Z,99.90
2019-02-09T07:05:45.263Z,99.90
2019-02-09T07:08:11.264Z,99.90
2019-02-09T07:10:37.605Z,99.90
2019-02-09T07:13:03.837Z,99.90
2019-02-09T07:15:31.578Z,99.90
2019-02-09T07:17:57.801Z,99.90
2019-02-09T07:20:24.036Z,99.90
2019-02-09T07:22:50.285Z,99.90
2019-02-09T07:25:16.709Z,99.90
2019-02-09T07:27:43.062Z,99.90
2019-02-09T07:30:15.637Z,99.90
2019-02-09T07:32:41.653Z,99.90
2019-02-09T07:35:10.499Z,98.70
2019-02-09T07:37:36.713Z,93.10
2019-02-09T07:40:06.153Z,85.60
2019-02-09T07:42:32.178Z,76.90
2019-02-09T07:44:58.192Z,74.40
2019-02-09T07:47:24.216Z,70.40
2019-02-09T07:49:50.449Z,70.30
2019-02-09T07:52:16.461Z,68.80
2019-02-09T07:54:42.470Z,67.90
2019-02-09T07:57:08.715Z,71.00
2019-02-09T07:59:34.745Z,70.60
2019-02-09T08:02:04.707Z,66.40
2019-02-09T08:04:28.878Z,63.70
2019-02-09T08:06:55.000Z,60.40
2019-02-09T08:09:21.036Z,58.70
2019-02-09T08:11:47.065Z,58.70
2019-02-09T08:14:13.314Z,57.30
2019-02-09T08:16:39.575Z,58.80
2019-02-09T08:19:05.814Z,59.60
2019-02-09T08:21:31.813Z,61.00
2019-02-09T08:23:57.845Z,64.60
2019-02-09T08:26:24.068Z,67.20
2019-02-09T08:28:50.081Z,71.90
2019-02-09T08:31:16.088Z,76.30
2019-02-09T08:33:42.106Z,79.70
2019-02-09T08:36:08.114Z,83.80
2019-02-09T08:38:34.139Z,87.10
2019-02-09T08:41:00.158Z,90.10
2019-02-09T08:43:26.400Z,90.00
2019-02-09T08:45:52.420Z,86.60
2019-02-09T08:48:18.432Z,83.80
2019-02-09T08:50:54.177Z,82.20
2019-02-09T08:53:20.426Z,82.50
2019-02-09T08:55:46.646Z,81.30
2019-02-09T08:58:12.758Z,81.40
2019-02-09T09:00:39.006Z,82.80
2019-02-09T09:03:05.328Z,83.20
2019-02-09T09:05:31.816Z,83.60
2019-02-09T09:07:57.841Z,85.30
2019-02-09T09:10:29.360Z,86.20
2019-02-09T09:12:56.695Z,85.40
2019-02-09T09:15:32.123Z,84.00
2019-02-09T09:17:58.201Z,84.30
2019-02-09T09:20:30.224Z,82.10
2019-02-09T09:22:56.348Z,80.50
2019-02-09T09:25:22.686Z,78.60
2019-02-09T09:27:48.784Z,77.60
2019-02-09T09:30:20.475Z,77.30
2019-02-09T09:32:46.497Z,76.30
2019-02-09T09:35:12.825Z,76.30
2019-02-09T09:37:38.891Z,77.80
2019-02-09T09:40:20.285Z,78.80
2019-02-09T09:42:46.830Z,80.20
2019-02-09T09:45:21.682Z,80.70
2019-02-09T09:47:47.881Z,79.70
2019-02-09T09:50:17.227Z,79.10
2019-02-09T09:52:43.444Z,77.40
2019-02-09T09:55:09.654Z,75.90
2019-02-09T09:57:35.681Z,74.70
2019-02-09T10:00:11.236Z,74.80
2019-02-09T10:02:37.250Z,72.20
2019-02-09T10:05:06.356Z,72.00
2019-02-09T10:07:32.387Z,70.90
2019-02-09T10:09:58.395Z,71.50
2019-02-09T10:12:24.665Z,69.20
2019-02-09T10:14:50.906Z,67.20
2019-02-09T10:17:16.922Z,64.60
2019-02-09T10:19:42.957Z,60.80
2019-02-09T10:22:08.960Z,62.60
2019-02-09T10:24:35.198Z,59.30
2019-02-09T10:27:01.213Z,57.80
2019-02-09T10:29:27.478Z,56.30
2019-02-09T10:31:53.488Z,55.40
2019-02-09T10:34:19.732Z,54.50
2019-02-09T10:36:45.733Z,55.70
2019-02-09T10:39:11.980Z,56.30
2019-02-09T10:41:38.210Z,57.00
2019-02-09T10:44:04.533Z,57.90
2019-02-09T10:46:30.668Z,57.50
2019-02-09T10:48:56.925Z,58.90
2019-02-09T10:51:22.962Z,60.40
2019-02-09T10:53:48.962Z,62.00
2019-02-09T10:56:15.089Z,63.30
2019-02-09T10:58:41.108Z,64.50
2019-02-09T11:01:10.473Z,64.40
2019-02-09T11:03:36.694Z,65.30
2019-02-09T11:06:03.013Z,66.10
2019-02-09T11:08:29.024Z,66.50
2019-02-09T11:10:55.031Z,66.60
2019-02-09T11:13:21.029Z,66.70
2019-02-09T11:15:47.052Z,66.10
2019-02-09T11:18:13.292Z,65.70
2019-02-09T11:20:39.516Z,62.70
2019-02-09T11:23:05.508Z,61.60
2019-02-09T11:25:31.518Z,61.10
2019-02-09T11:27:57.579Z,60.30
2019-02-09T11:30:24.990Z,59.90
2019-02-09T11:32:50.989Z,58.30
2019-02-09T11:35:17.514Z,56.70
2019-02-09T11:37:43.625Z,56.10
2019-02-09T11:40:15.242Z,56.90
2019-02-09T11:42:41.242Z,57.10
2019-02-09T11:45:11.208Z,56.20
2019-02-09T11:47:37.218Z,56.10
2019-02-09T11:50:09.943Z,56.30
2019-02-09T11:52:36.073Z,56.40
2019-02-09T11:55:04.693Z,54.70
2019-02-09T11:57:30.695Z,54.20
2019-02-09T11:59:56.754Z,53.50
2019-02-09T12:02:22.752Z,54.10
2019-02-09T12:04:48.799Z,54.40
2019-02-09T12:07:14.826Z,55.10
2019-02-09T12:09:41.065Z,56.00
2019-02-09T12:12:07.065Z,56.30
2019-02-09T12:14:33.180Z,55.50
2019-02-09T12:16:59.404Z,56.30
2019-02-09T12:19:25.630Z,57.30
2019-02-09T12:21:51.900Z,57.90
2019-02-09T12:24:17.914Z,58.00
2019-02-09T12:26:43.930Z,58.40
2019-02-09T12:29:09.987Z,58.60
2019-02-09T12:31:35.972Z,58.40
2019-02-09T12:34:02.078Z,58.40
2019-02-09T12:36:28.100Z,58.40
2019-02-09T12:38:54.103Z,58.20
2019-02-09T12:41:20.128Z,58.70
2019-02-09T12:43:46.346Z,59.20
2019-02-09T12:46:12.457Z,60.00
2019-02-09T12:48:38.466Z,60.30
2019-02-09T12:51:04.718Z,60.10
2019-02-09T12:53:30.982Z,60.00
2019-02-09T12:55:57.005Z,60.40
2019-02-09T12:58:23.008Z,60.30
2019-02-09T13:00:49.036Z,60.50
2019-02-09T13:03:18.830Z,60.80
2019-02-09T13:05:45.077Z,61.40
2019-02-09T13:08:11.371Z,61.80
2019-02-09T13:10:37.365Z,61.80
2019-02-09T13:13:03.598Z,62.10
2019-02-09T13:15:31.026Z,62.50
2019-02-09T13:17:57.263Z,62.60
2019-02-09T13:20:25.286Z,62.30
2019-02-09T13:22:51.300Z,61.90
2019-02-09T13:25:17.962Z,62.60
2019-02-09T13:27:44.113Z,63.10
2019-02-09T13:30:20.072Z,63.00
2019-02-09T13:32:46.416Z,62.50
2019-02-09T13:35:13.806Z,63.10
2019-02-09T13:37:39.841Z,62.30
2019-02-09T13:40:20.422Z,62.40
2019-02-09T13:42:46.499Z,61.70
2019-02-09T13:45:16.375Z,61.80
2019-02-09T13:47:42.417Z,61.00
2019-02-09T13:50:11.533Z,60.90
2019-02-09T13:52:37.765Z,60.50
2019-02-09T13:55:06.396Z,61.10
2019-02-09T13:57:32.398Z,61.10
2019-02-09T13:59:58.421Z,60.20
2019-02-09T14:02:24.662Z,60.50
2019-02-09T14:04:50.701Z,61.40
2019-02-09T14:07:16.726Z,61.20
2019-02-09T14:09:42.762Z,61.10
2019-02-09T14:12:08.780Z,61.30
2019-02-09T14:14:35.020Z,62.30
2019-02-09T14:17:01.046Z,62.00
2019-02-09T14:19:27.074Z,62.60
2019-02-09T14:21:53.329Z,62.50
2019-02-09T14:24:19.576Z,63.00
2019-02-09T14:26:45.615Z,62.70
2019-02-09T14:29:11.964Z,63.30
2019-02-09T14:31:38.187Z,63.90
2019-02-09T14:34:04.458Z,62.30
2019-02-09T14:36:30.464Z,61.40
2019-02-09T14:38:56.479Z,61.90
2019-02-09T14:41:22.546Z,62.50
2019-02-09T14:43:48.784Z,63.00
2019-02-09T14:46:15.033Z,63.80
2019-02-09T14:48:41.281Z,64.70
2019-02-09T14:51:07.298Z,65.10
2019-02-09T14:53:33.313Z,65.50
2019-02-09T14:55:59.345Z,65.90
2019-02-09T14:58:25.610Z,66.10
2019-02-09T15:00:53.224Z,66.20
2019-02-09T15:03:26.119Z,66.80
2019-02-09T15:05:47.458Z,66.40
2019-02-09T15:08:13.480Z,65.90
2019-02-09T15:10:39.502Z,65.80
2019-02-09T15:13:07.004Z,66.30
2019-02-09T15:15:36.436Z,66.60
2019-02-09T15:18:04.646Z,67.30
2019-02-09T15:20:36.651Z,68.20
2019-02-09T15:23:03.970Z,68.90
2019-02-09T15:25:30.239Z,69.70
2019-02-09T15:27:56.259Z,72.00
2019-02-09T15:30:27.912Z,74.60
2019-02-09T15:32:54.116Z,75.70
2019-02-09T15:35:20.496Z,78.10
2019-02-09T15:37:46.514Z,81.90
2019-02-09T15:40:17.978Z,84.20
2019-02-09T15:42:44.342Z,86.80
2019-02-09T15:45:13.662Z,90.70
2019-02-09T15:47:39.717Z,91.90
2019-02-09T15:50:08.834Z,93.00
2019-02-09T15:52:34.837Z,93.20
2019-02-09T15:55:01.101Z,94.00
2019-02-09T15:57:27.417Z,94.90
2019-02-09T15:59:53.424Z,96.10
2019-02-09T16:02:19.497Z,96.10
2019-02-09T16:04:45.526Z,95.20
2019-02-09T16:07:11.538Z,95.80
2019-02-09T16:09:37.554Z,95.60
2019-02-09T16:12:03.663Z,96.70
2019-02-09T16:14:29.668Z,96.00
2019-02-09T16:16:55.955Z,95.30
2019-02-09T16:19:21.958Z,95.90
2019-02-09T16:21:48.259Z,95.60
2019-02-09T16:24:14.379Z,94.60
2019-02-09T16:26:40.616Z,94.40
2019-02-09T16:29:06.669Z,93.80
2019-02-09T16:31:32.679Z,93.10
2019-02-09T16:33:58.695Z,92.50
2019-02-09T16:36:24.702Z,93.00
2019-02-09T16:38:50.705Z,93.40
2019-02-09T16:41:16.708Z,92.20
2019-02-09T16:43:42.725Z,92.80
2019-02-09T16:46:08.734Z,93.20
2019-02-09T16:48:34.993Z,93.60
2019-02-09T16:51:01.007Z,94.60
2019-02-09T16:53:27.010Z,95.60
2019-02-09T16:55:53.119Z,95.40
2019-02-09T16:58:19.133Z,95.10
2019-02-09T17:00:45.321Z,95.50
2019-02-09T17:03:12.152Z,96.30
2019-02-09T17:05:38.983Z,96.80
2019-02-09T17:08:05.322Z,97.70
2019-02-09T17:10:31.330Z,98.50
2019-02-09T17:12:57.338Z,98.80
2019-02-09T17:15:27.571Z,99.10
2019-02-09T17:17:53.584Z,98.90
2019-02-09T17:20:19.920Z,98.30
2019-02-09T17:22:46.610Z,98.40
2019-02-09T17:25:16.408Z,98.20
2019-02-09T17:27:42.426Z,98.70
2019-02-09T17:30:15.651Z,97.30
2019-02-09T17:32:41.674Z,97.30
2019-02-09T17:35:09.966Z,96.50
2019-02-09T17:37:36.017Z,95.70
2019-02-09T17:40:11.744Z,95.80
2019-02-09T17:42:37.778Z,95.60
2019-02-09T17:45:13.469Z,95.60
2019-02-09T17:47:39.484Z,96.40
2019-02-09T17:50:08.406Z,96.30
2019-02-09T17:52:34.435Z,97.10
2019-02-09T17:55:00.445Z,98.00
2019-02-09T17:57:26.754Z,97.40
2019-02-09T17:59:52.821Z,97.50
2019-02-09T18:02:18.841Z,98.30
2019-02-09T18:04:48.649Z,98.00
2019-02-09T18:07:12.995Z,97.80
2019-02-09T18:09:39.401Z,97.70
2019-02-09T18:12:05.412Z,97.70
2019-02-09T18:14:31.417Z,96.20
2019-02-09T18:16:57.457Z,96.00
2019-02-09T18:19:23.888Z,96.20
2019-02-09T18:21:49.957Z,96.00
2019-02-09T18:24:15.983Z,96.20
2019-02-09T18:26:42.462Z,95.40
2019-02-09T18:29:08.599Z,97.10
2019-02-09T18:31:34.605Z,96.00
2019-02-09T18:34:00.619Z,94.60
2019-02-09T18:36:26.633Z,95.00
2019-02-09T18:38:52.872Z,95.50
2019-02-09T18:41:18.885Z,96.20
2019-02-09T18:43:44.898Z,97.90
2019-02-09T18:46:10.914Z,99.20
2019-02-09T18:48:37.174Z,99.70
2019-02-09T18:51:03.288Z,99.80
2019-02-09T18:53:29.289Z,99.80
2019-02-09T18:55:55.746Z,99.60
2019-02-09T18:58:21.846Z,99.60
2019-02-09T19:00:48.099Z,98.50
2019-02-09T19:03:14.119Z,98.10
2019-02-09T19:05:40.369Z,98.20
2019-02-09T19:08:07.192Z,98.60
2019-02-09T19:10:33.242Z,98.70
2019-02-09T19:12:59.381Z,99.20
2019-02-09T19:15:26.377Z,98.90
2019-02-09T19:17:52.598Z,98.30
2019-02-09T19:20:27.854Z,97.80
2019-02-09T19:22:54.084Z,98.10
2019-02-09T19:25:21.277Z,97.60
2019-02-09T19:27:47.603Z,97.00
2019-02-09T19:30:16.126Z,96.90
2019-02-09T19:32:42.378Z,96.20
2019-02-09T19:35:12.013Z,95.80
2019-02-09T19:37:36.708Z,96.80
2019-02-09T19:40:06.507Z,97.20
2019-02-09T19:42:32.840Z,96.90
2019-02-09T19:44:58.850Z,97.60
2019-02-09T19:47:24.990Z,98.40
2019-02-09T19:49:51.233Z,99.70
2019-02-09T19:52:17.260Z,99.90
2019-02-09T19:54:43.278Z,99.90
2019-02-09T19:57:09.309Z,99.90
2019-02-09T19:59:35.321Z,99.90
2019-02-09T20:02:01.346Z,99.90
2019-02-09T20:04:27.347Z,99.90
2019-02-09T20:06:53.370Z,99.90
2019-02-09T20:09:19.374Z,99.90
2019-02-09T20:11:45.392Z,99.90
2019-02-09T20:14:11.398Z,99.90
2019-02-09T20:16:37.420Z,99.90
2019-02-09T20:19:03.520Z,99.90
2019-02-09T20:21:29.532Z,99.90
2019-02-09T20:23:55.770Z,99.90
2019-02-09T20:26:21.806Z,99.90
2019-02-09T20:28:47.818Z,99.90
2019-02-09T20:31:13.818Z,99.90
2019-02-09T20:33:40.073Z,99.90
2019-02-09T20:36:06.182Z,99.90
2019-02-09T20:38:32.198Z,99.90
2019-02-09T20:41:01.399Z,99.90
2019-02-09T20:43:27.466Z,99.90
2019-02-09T20:45:53.687Z,99.90
2019-02-09T20:48:19.710Z,99.90
2019-02-09T20:50:45.766Z,99.90
2019-02-09T20:53:11.779Z,99.90
2019-02-09T20:55:37.790Z,99.90
2019-02-09T20:58:05.936Z,99.90
2019-02-09T21:00:31.941Z,99.90
2019-02-09T21:02:58.078Z,99.90
2019-02-09T21:05:24.680Z,99.90
2019-02-09T21:07:50.852Z,99.90
2019-02-09T21:10:22.026Z,99.90
2019-02-09T21:12:48.121Z,99.90
2019-02-09T21:15:18.171Z,99.90
2019-02-09T21:17:44.182Z,99.90
2019-02-09T21:20:13.097Z,99.90
2019-02-09T21:22:39.335Z,99.90
2019-02-09T21:25:09.403Z,99.90
2019-02-09T21:27:35.670Z,99.90
2019-02-09T21:30:01.792Z,99.90
2019-02-09T21:32:27.797Z,99.90
2019-02-09T21:34:53.821Z,99.90
2019-02-09T21:37:19.839Z,99.90
2019-02-09T21:39:45.865Z,99.90
2019-02-09T21:42:11.882Z,99.90
2019-02-09T21:44:38.123Z,99.90
2019-02-09T21:47:04.223Z,99.90
2019-02-09T21:49:30.249Z,99.90
2019-02-09T21:51:56.282Z,99.90
2019-02-09T21:54:22.541Z,99.90
2019-02-09T21:56:48.539Z,99.90
2019-02-09T21:59:14.549Z,99.90
2019-02-09T22:01:40.555Z,99.90
2019-02-09T22:04:06.590Z,99.90
2019-02-09T22:06:32.816Z,99.90
2019-02-09T22:08:58.822Z,99.90
2019-02-09T22:11:25.189Z,99.90
2019-02-09T22:13:51.293Z,99.90
2019-02-09T22:16:17.652Z,99.90
2019-02-09T22:18:43.744Z,99.90
2019-02-09T22:21:11.067Z,99.90
2019-02-09T22:23:37.089Z,99.90
2019-02-09T22:26:03.438Z,99.90
2019-02-09T22:28:29.522Z,99.90
2019-02-09T22:30:55.631Z,99.90
2019-02-09T22:33:24.615Z,99.90
2019-02-09T22:35:49.626Z,99.90
2019-02-09T22:38:15.762Z,99.90
2019-02-09T22:40:41.874Z,99.90
2019-02-09T22:43:08.010Z,99.90
2019-02-09T22:45:34.961Z,99.90
2019-02-09T22:48:00.975Z,99.90
2019-02-09T22:50:38.926Z,99.90
2019-02-09T22:53:05.024Z,99.90
2019-02-09T22:55:31.046Z,99.90
2019-02-09T22:57:57.067Z,99.90
2019-02-09T23:00:54.076Z,99.90
2019-02-09T23:03:26.532Z,99.90
2019-02-09T23:06:11.023Z,99.90
2019-02-09T23:08:37.062Z,99.90
2019-02-09T23:11:03.157Z,99.90
2019-02-09T23:13:29.161Z,99.90
2019-02-09T23:15:55.392Z,99.90
2019-02-09T23:18:21.510Z,99.90
2019-02-09T23:20:47.517Z,99.90
2019-02-09T23:23:13.752Z,99.90
2019-02-09T23:25:39.777Z,99.90
2019-02-09T23:28:05.771Z,99.90
2019-02-09T23:30:32.023Z,99.90
2019-02-09T23:32:58.881Z,99.90
2019-02-09T23:35:24.922Z,99.90
2019-02-09T23:37:50.901Z,99.90
2019-02-09T23:40:16.930Z,99.90
2019-02-09T23:42:43.030Z,99.90
2019-02-09T23:45:09.050Z,99.90
2019-02-09T23:47:35.056Z,99.90
2019-02-09T23:50:01.079Z,99.90
2019-02-09T23:52:27.093Z,99.90
2019-02-09T23:54:53.093Z,99.90
2019-02-09T23:57:19.355Z,99.90
2019-02-09T23:59:45.370Z,99.90
